sensor_id;sensor_type;location;lat;lon;timestamp;temperature;humidity
22108;DHT22;11220;48.812;9.128;2023-05-10T00:01:33;19.90;91.30
22108;DHT22;11220;48.812;9.128;2023-05-10T00:03:59;20.20;91.40
22108;DHT22;11220;48.812;9.128;2023-05-10T00:06:24;20.20;91.30
22108;DHT22;11220;48.812;9.128;2023-05-10T00:08:50;19.80;91.20
22108;DHT22;11220;48.812;9.128;2023-05-10T00:11:15;19.80;91.20
22108;DHT22;11220;48.812;9.128;2023-05-10T00:13:41;21.40;92.10
22108;DHT22;11220;48.812;9.128;2023-05-10T00:16:07;19.80;91.30
22108;DHT22;11220;48.812;9.128;2023-05-10T00:18:32;19.90;91.30
22108;DHT22;11220;48.812;9.128;2023-05-10T00:20:58;19.80;91.20
22108;DHT22;11220;48.812;9.128;2023-05-10T00:23:23;20.40;91.40
22108;DHT22;11220;48.812;9.128;2023-05-10T00:25:49;20.60;91.50
22108;DHT22;11220;48.812;9.128;2023-05-10T00:28:14;19.90;91.30
22108;DHT22;11220;48.812;9.128;2023-05-10T00:30:40;19.80;91.20
22108;DHT22;11220;48.812;9.128;2023-05-10T00:33:05;20.50;91.40
22108;DHT22;11220;48.812;9.128;2023-05-10T00:35:31;19.80;91.20
22108;DHT22;11220;48.812;9.128;2023-05-10T00:37:56;20.00;91.30
22108;DHT22;11220;48.812;9.128;2023-05-10T00:40:22;19.80;91.20
22108;DHT22;11220;48.812;9.128;2023-05-10T00:42:48;19.80;91.20
22108;DHT22;11220;48.812;9.128;2023-05-10T00:45:13;20.80;91.50
22108;DHT22;11220;48.812;9.128;2023-05-10T00:47:39;19.80;91.20
22108;DHT22;11220;48.812;9.128;2023-05-10T00:50:06;19.80;91.20
22108;DHT22;11220;48.812;9.128;2023-05-10T00:52:32;19.80;91.20
22108;DHT22;11220;48.812;9.128;2023-05-10T00:54:57;19.80;91.20
22108;DHT22;11220;48.812;9.128;2023-05-10T00:57:24;19.90;91.20
22108;DHT22;11220;48.812;9.128;2023-05-10T00:59:50;19.80;91.20
22108;DHT22;11220;48.812;9.128;2023-05-10T01:02:16;19.80;91.20
22108;DHT22;11220;48.812;9.128;2023-05-10T01:04:43;20.60;91.40
22108;DHT22;11220;48.812;9.128;2023-05-10T01:07:08;19.70;91.20
22108;DHT22;11220;48.812;9.128;2023-05-10T01:09:34;19.70;91.20
22108;DHT22;11220;48.812;9.128;2023-05-10T01:12:00;19.70;91.20
22108;DHT22;11220;48.812;9.128;2023-05-10T01:14:27;20.00;91.30
22108;DHT22;11220;48.812;9.128;2023-05-10T01:16:54;20.00;91.20
22108;DHT22;11220;48.812;9.128;2023-05-10T01:19:23;19.70;91.20
22108;DHT22;11220;48.812;9.128;2023-05-10T01:22:05;20.10;91.30
22108;DHT22;11220;48.812;9.128;2023-05-10T01:28:07;19.70;91.20
22108;DHT22;11220;48.812;9.128;2023-05-10T01:33:59;19.70;91.20
22108;DHT22;11220;48.812;9.128;2023-05-10T01:42:20;19.70;91.20
22108;DHT22;11220;48.812;9.128;2023-05-10T01:45:01;19.70;91.20
22108;DHT22;11220;48.812;9.128;2023-05-10T01:50:02;19.80;91.20
22108;DHT22;11220;48.812;9.128;2023-05-10T01:52:36;19.70;91.20
22108;DHT22;11220;48.812;9.128;2023-05-10T01:55:09;19.70;91.20
22108;DHT22;11220;48.812;9.128;2023-05-10T01:57:37;19.70;91.20
22108;DHT22;11220;48.812;9.128;2023-05-10T02:00:06;20.20;91.30
22108;DHT22;11220;48.812;9.128;2023-05-10T02:02:42;19.60;91.20
22108;DHT22;11220;48.812;9.128;2023-05-10T02:05:12;19.60;91.20
22108;DHT22;11220;48.812;9.128;2023-05-10T02:07:39;20.20;91.30
22108;DHT22;11220;48.812;9.128;2023-05-10T02:10:06;19.60;91.20
22108;DHT22;11220;48.812;9.128;2023-05-10T02:12:36;19.60;91.20
22108;DHT22;11220;48.812;9.128;2023-05-10T02:15:05;20.60;91.50
22108;DHT22;11220;48.812;9.128;2023-05-10T02:17:32;19.60;91.20
22108;DHT22;11220;48.812;9.128;2023-05-10T02:19:59;19.70;91.20
22108;DHT22;11220;48.812;9.128;2023-05-10T02:22:26;19.60;91.20
22108;DHT22;11220;48.812;9.128;2023-05-10T02:24:57;19.80;91.20
22108;DHT22;11220;48.812;9.128;2023-05-10T02:27:24;20.00;91.30
22108;DHT22;11220;48.812;9.128;2023-05-10T02:29:51;19.80;91.20
22108;DHT22;11220;48.812;9.128;2023-05-10T02:32:17;20.40;91.40
22108;DHT22;11220;48.812;9.128;2023-05-10T02:34:44;20.60;91.50
22108;DHT22;11220;48.812;9.128;2023-05-10T02:37:13;19.60;91.20
22108;DHT22;11220;48.812;9.128;2023-05-10T02:39:40;19.60;91.20
22108;DHT22;11220;48.812;9.128;2023-05-10T02:42:12;19.70;91.20
22108;DHT22;11220;48.812;9.128;2023-05-10T02:44:41;20.20;91.30
22108;DHT22;11220;48.812;9.128;2023-05-10T02:47:07;19.60;91.20
22108;DHT22;11220;48.812;9.128;2023-05-10T02:49:32;19.50;91.10
22108;DHT22;11220;48.812;9.128;2023-05-10T02:52:00;19.70;91.20
22108;DHT22;11220;48.812;9.128;2023-05-10T02:54:30;19.70;91.20
22108;DHT22;11220;48.812;9.128;2023-05-10T02:56:58;19.60;91.20
22108;DHT22;11220;48.812;9.128;2023-05-10T02:59:27;19.60;91.20
22108;DHT22;11220;48.812;9.128;2023-05-10T03:01:52;19.60;91.20
22108;DHT22;11220;48.812;9.128;2023-05-10T03:04:18;20.20;91.30
22108;DHT22;11220;48.812;9.128;2023-05-10T03:06:43;20.60;91.50
22108;DHT22;11220;48.812;9.128;2023-05-10T03:09:10;19.90;91.30
22108;DHT22;11220;48.812;9.128;2023-05-10T03:17:55;19.50;91.20
22108;DHT22;11220;48.812;9.128;2023-05-10T03:20:56;19.50;91.20
22108;DHT22;11220;48.812;9.128;2023-05-10T03:23:40;19.50;91.20
22108;DHT22;11220;48.812;9.128;2023-05-10T03:26:07;19.50;91.20
22108;DHT22;11220;48.812;9.128;2023-05-10T03:28:34;19.50;91.20
22108;DHT22;11220;48.812;9.128;2023-05-10T03:31:00;19.50;91.20
22108;DHT22;11220;48.812;9.128;2023-05-10T03:33:27;19.80;91.30
22108;DHT22;11220;48.812;9.128;2023-05-10T03:35:52;19.50;91.20
22108;DHT22;11220;48.812;9.128;2023-05-10T03:38:18;19.50;91.20
22108;DHT22;11220;48.812;9.128;2023-05-10T03:40:43;19.50;91.20
22108;DHT22;11220;48.812;9.128;2023-05-10T03:43:09;19.40;91.20
22108;DHT22;11220;48.812;9.128;2023-05-10T03:45:34;19.50;91.20
22108;DHT22;11220;48.812;9.128;2023-05-10T03:48:00;19.50;91.20
22108;DHT22;11220;48.812;9.128;2023-05-10T03:50:25;19.90;91.30
22108;DHT22;11220;48.812;9.128;2023-05-10T03:52:51;19.50;91.20
22108;DHT22;11220;48.812;9.128;2023-05-10T03:55:17;19.70;91.30
22108;DHT22;11220;48.812;9.128;2023-05-10T03:57:43;19.40;91.20
22108;DHT22;11220;48.812;9.128;2023-05-10T04:00:09;19.50;91.20
22108;DHT22;11220;48.812;9.128;2023-05-10T04:02:35;19.50;91.20
22108;DHT22;11220;48.812;9.128;2023-05-10T04:05:01;20.30;91.40
22108;DHT22;11220;48.812;9.128;2023-05-10T04:07:26;20.10;91.40
22108;DHT22;11220;48.812;9.128;2023-05-10T04:09:52;19.50;91.20
22108;DHT22;11220;48.812;9.128;2023-05-10T04:12:17;19.40;91.20
22108;DHT22;11220;48.812;9.128;2023-05-10T04:14:43;19.60;91.20
22108;DHT22;11220;48.812;9.128;2023-05-10T04:17:08;19.50;91.20
22108;DHT22;11220;48.812;9.128;2023-05-10T04:19:34;19.40;91.20
22108;DHT22;11220;48.812;9.128;2023-05-10T04:22:00;19.90;91.30
22108;DHT22;11220;48.812;9.128;2023-05-10T04:24:27;19.80;91.30
22108;DHT22;11220;48.812;9.128;2023-05-10T04:26:54;20.00;91.30
22108;DHT22;11220;48.812;9.128;2023-05-10T04:29:20;19.80;91.30
22108;DHT22;11220;48.812;9.128;2023-05-10T04:31:45;19.70;91.30
22108;DHT22;11220;48.812;9.128;2023-05-10T04:34:11;19.40;91.20
22108;DHT22;11220;48.812;9.128;2023-05-10T04:36:36;19.60;91.30
22108;DHT22;11220;48.812;9.128;2023-05-10T04:39:03;20.20;91.40
22108;DHT22;11220;48.812;9.128;2023-05-10T04:41:29;19.40;91.20
22108;DHT22;11220;48.812;9.128;2023-05-10T04:43:55;20.30;91.40
22108;DHT22;11220;48.812;9.128;2023-05-10T04:46:20;20.20;91.40
22108;DHT22;11220;48.812;9.128;2023-05-10T04:48:46;19.40;91.20
22108;DHT22;11220;48.812;9.128;2023-05-10T04:51:11;19.50;91.20
22108;DHT22;11220;48.812;9.128;2023-05-10T04:53:37;19.40;91.20
22108;DHT22;11220;48.812;9.128;2023-05-10T04:56:03;19.40;91.20
22108;DHT22;11220;48.812;9.128;2023-05-10T04:58:29;19.40;91.20
22108;DHT22;11220;48.812;9.128;2023-05-10T05:00:54;19.40;91.20
22108;DHT22;11220;48.812;9.128;2023-05-10T05:03:20;19.40;91.20
22108;DHT22;11220;48.812;9.128;2023-05-10T05:05:45;19.80;91.30
22108;DHT22;11220;48.812;9.128;2023-05-10T05:08:11;19.40;91.20
22108;DHT22;11220;48.812;9.128;2023-05-10T05:10:36;19.80;91.30
22108;DHT22;11220;48.812;9.128;2023-05-10T05:13:02;19.70;91.30
22108;DHT22;11220;48.812;9.128;2023-05-10T05:15:27;19.90;91.30
22108;DHT22;11220;48.812;9.128;2023-05-10T05:17:53;19.90;91.30
22108;DHT22;11220;48.812;9.128;2023-05-10T05:20:19;19.40;91.60
22108;DHT22;11220;48.812;9.128;2023-05-10T05:22:44;19.50;91.20
22108;DHT22;11220;48.812;9.128;2023-05-10T05:25:10;20.60;91.50
22108;DHT22;11220;48.812;9.128;2023-05-10T05:27:37;19.50;91.20
22108;DHT22;11220;48.812;9.128;2023-05-10T05:30:02;19.50;91.20
22108;DHT22;11220;48.812;9.128;2023-05-10T05:32:29;19.40;91.20
22108;DHT22;11220;48.812;9.128;2023-05-10T05:34:55;19.40;91.20
22108;DHT22;11220;48.812;9.128;2023-05-10T05:37:21;19.70;91.30
22108;DHT22;11220;48.812;9.128;2023-05-10T05:39:48;19.50;91.20
22108;DHT22;11220;48.812;9.128;2023-05-10T05:42:14;19.70;91.30
22108;DHT22;11220;48.812;9.128;2023-05-10T05:44:41;19.40;91.20
22108;DHT22;11220;48.812;9.128;2023-05-10T05:47:07;19.40;91.20
22108;DHT22;11220;48.812;9.128;2023-05-10T05:49:32;19.40;91.20
22108;DHT22;11220;48.812;9.128;2023-05-10T05:51:59;19.80;91.30
22108;DHT22;11220;48.812;9.128;2023-05-10T05:54:26;19.40;91.20
22108;DHT22;11220;48.812;9.128;2023-05-10T05:56:54;19.60;91.20
22108;DHT22;11220;48.812;9.128;2023-05-10T05:59:20;20.40;91.40
22108;DHT22;11220;48.812;9.128;2023-05-10T06:01:46;20.40;91.40
22108;DHT22;11220;48.812;9.128;2023-05-10T06:04:11;19.40;91.20
22108;DHT22;11220;48.812;9.128;2023-05-10T06:06:37;19.90;91.30
22108;DHT22;11220;48.812;9.128;2023-05-10T06:09:03;19.70;91.20
22108;DHT22;11220;48.812;9.128;2023-05-10T06:11:28;19.40;91.20
22108;DHT22;11220;48.812;9.128;2023-05-10T06:13:54;19.50;91.20
22108;DHT22;11220;48.812;9.128;2023-05-10T06:16:19;19.50;91.20
22108;DHT22;11220;48.812;9.128;2023-05-10T06:18:45;19.50;91.60
22108;DHT22;11220;48.812;9.128;2023-05-10T06:21:10;20.10;91.30
22108;DHT22;11220;48.812;9.128;2023-05-10T06:23:36;19.40;91.50
22108;DHT22;11220;48.812;9.128;2023-05-10T06:26:02;19.40;91.10
22108;DHT22;11220;48.812;9.128;2023-05-10T06:28:28;19.40;91.20
22108;DHT22;11220;48.812;9.128;2023-05-10T06:30:53;19.60;91.20
22108;DHT22;11220;48.812;9.128;2023-05-10T06:33:19;19.90;91.30
22108;DHT22;11220;48.812;9.128;2023-05-10T06:35:44;19.50;91.20
22108;DHT22;11220;48.812;9.128;2023-05-10T06:38:10;19.50;91.20
22108;DHT22;11220;48.812;9.128;2023-05-10T06:40:36;19.70;91.30
22108;DHT22;11220;48.812;9.128;2023-05-10T06:43:01;19.50;91.20
22108;DHT22;11220;48.812;9.128;2023-05-10T06:45:27;19.40;91.20
22108;DHT22;11220;48.812;9.128;2023-05-10T06:47:52;19.50;91.20
22108;DHT22;11220;48.812;9.128;2023-05-10T06:50:18;19.70;91.20
22108;DHT22;11220;48.812;9.128;2023-05-10T06:52:43;19.50;91.10
22108;DHT22;11220;48.812;9.128;2023-05-10T06:55:09;19.50;91.10
22108;DHT22;11220;48.812;9.128;2023-05-10T06:57:35;19.40;91.10
22108;DHT22;11220;48.812;9.128;2023-05-10T07:00:01;19.50;91.10
22108;DHT22;11220;48.812;9.128;2023-05-10T07:02:27;19.50;91.20
22108;DHT22;11220;48.812;9.128;2023-05-10T07:04:53;19.50;91.10
22108;DHT22;11220;48.812;9.128;2023-05-10T07:07:19;19.70;91.20
22108;DHT22;11220;48.812;9.128;2023-05-10T07:09:44;19.40;91.10
22108;DHT22;11220;48.812;9.128;2023-05-10T07:12:11;19.50;91.10
22108;DHT22;11220;48.812;9.128;2023-05-10T07:14:36;19.50;91.10
22108;DHT22;11220;48.812;9.128;2023-05-10T07:17:02;19.60;91.20
22108;DHT22;11220;48.812;9.128;2023-05-10T07:19:28;19.90;91.20
22108;DHT22;11220;48.812;9.128;2023-05-10T07:21:54;19.50;91.10
22108;DHT22;11220;48.812;9.128;2023-05-10T07:24:20;19.90;91.20
22108;DHT22;11220;48.812;9.128;2023-05-10T07:26:46;19.60;91.10
22108;DHT22;11220;48.812;9.128;2023-05-10T07:29:11;19.50;91.10
22108;DHT22;11220;48.812;9.128;2023-05-10T07:31:37;19.50;91.10
22108;DHT22;11220;48.812;9.128;2023-05-10T07:34:02;19.80;91.10
22108;DHT22;11220;48.812;9.128;2023-05-10T07:36:28;19.50;91.00
22108;DHT22;11220;48.812;9.128;2023-05-10T07:38:54;19.60;91.00
22108;DHT22;11220;48.812;9.128;2023-05-10T07:41:19;19.60;91.00
22108;DHT22;11220;48.812;9.128;2023-05-10T07:43:46;20.30;91.20
22108;DHT22;11220;48.812;9.128;2023-05-10T07:46:11;20.10;91.60
22108;DHT22;11220;48.812;9.128;2023-05-10T07:48:37;20.30;91.20
22108;DHT22;11220;48.812;9.128;2023-05-10T07:51:02;19.60;91.00
22108;DHT22;11220;48.812;9.128;2023-05-10T07:53:28;19.60;91.00
22108;DHT22;11220;48.812;9.128;2023-05-10T07:55:57;20.20;91.10
22108;DHT22;11220;48.812;9.128;2023-05-10T07:58:24;19.60;91.00
22108;DHT22;11220;48.812;9.128;2023-05-10T08:00:49;19.70;91.00
22108;DHT22;11220;48.812;9.128;2023-05-10T08:03:15;20.70;91.30
22108;DHT22;11220;48.812;9.128;2023-05-10T08:05:41;20.20;91.10
22108;DHT22;11220;48.812;9.128;2023-05-10T08:08:06;19.80;91.00
22108;DHT22;11220;48.812;9.128;2023-05-10T08:10:32;20.20;91.10
22108;DHT22;11220;48.812;9.128;2023-05-10T08:12:57;19.60;90.90
22108;DHT22;11220;48.812;9.128;2023-05-10T08:15:24;19.80;91.00
22108;DHT22;11220;48.812;9.128;2023-05-10T08:17:50;19.70;91.00
22108;DHT22;11220;48.812;9.128;2023-05-10T08:20:16;19.70;91.00
22108;DHT22;11220;48.812;9.128;2023-05-10T08:22:45;19.80;91.00
22108;DHT22;11220;48.812;9.128;2023-05-10T08:25:10;19.70;91.00
22108;DHT22;11220;48.812;9.128;2023-05-10T08:27:36;19.70;91.00
22108;DHT22;11220;48.812;9.128;2023-05-10T08:30:02;19.70;91.00
22108;DHT22;11220;48.812;9.128;2023-05-10T08:32:27;19.70;91.00
22108;DHT22;11220;48.812;9.128;2023-05-10T08:34:53;19.90;91.00
22108;DHT22;11220;48.812;9.128;2023-05-10T08:37:18;20.20;91.10
22108;DHT22;11220;48.812;9.128;2023-05-10T08:39:44;19.70;91.00
22108;DHT22;11220;48.812;9.128;2023-05-10T08:42:16;19.70;90.90
22108;DHT22;11220;48.812;9.128;2023-05-10T08:44:45;19.70;90.90
22108;DHT22;11220;48.812;9.128;2023-05-10T08:47:15;19.80;90.90
22108;DHT22;11220;48.812;9.128;2023-05-10T08:49:43;19.70;90.90
22108;DHT22;11220;48.812;9.128;2023-05-10T08:52:12;19.70;90.90
22108;DHT22;11220;48.812;9.128;2023-05-10T08:54:38;19.80;90.90
22108;DHT22;11220;48.812;9.128;2023-05-10T08:57:04;19.70;90.90
22108;DHT22;11220;48.812;9.128;2023-05-10T08:59:30;19.80;90.90
22108;DHT22;11220;48.812;9.128;2023-05-10T09:01:58;20.30;91.00
22108;DHT22;11220;48.812;9.128;2023-05-10T09:04:25;19.90;90.90
22108;DHT22;11220;48.812;9.128;2023-05-10T09:06:51;19.70;90.90
22108;DHT22;11220;48.812;9.128;2023-05-10T09:09:17;19.70;90.90
22108;DHT22;11220;48.812;9.128;2023-05-10T09:11:44;19.70;90.90
22108;DHT22;11220;48.812;9.128;2023-05-10T09:14:10;19.80;90.90
22108;DHT22;11220;48.812;9.128;2023-05-10T09:16:38;19.80;90.90
22108;DHT22;11220;48.812;9.128;2023-05-10T09:19:03;19.70;90.80
22108;DHT22;11220;48.812;9.128;2023-05-10T09:21:29;19.70;90.80
22108;DHT22;11220;48.812;9.128;2023-05-10T09:23:55;19.70;90.80
22108;DHT22;11220;48.812;9.128;2023-05-10T09:26:24;19.80;90.80
22108;DHT22;11220;48.812;9.128;2023-05-10T09:28:56;19.70;90.80
22108;DHT22;11220;48.812;9.128;2023-05-10T09:34:44;19.70;90.80
22108;DHT22;11220;48.812;9.128;2023-05-10T09:37:53;20.50;91.10
22108;DHT22;11220;48.812;9.128;2023-05-10T09:44:21;19.70;90.70
22108;DHT22;11220;48.812;9.128;2023-05-10T10:00:06;19.80;90.70
22108;DHT22;11220;48.812;9.128;2023-05-10T10:02:32;19.80;90.40
22108;DHT22;11220;48.812;9.128;2023-05-10T10:05:00;19.80;87.70
22108;DHT22;11220;48.812;9.128;2023-05-10T10:07:26;19.60;85.60
22108;DHT22;11220;48.812;9.128;2023-05-10T10:09:53;19.90;84.60
22108;DHT22;11220;48.812;9.128;2023-05-10T10:12:20;19.30;84.50
22108;DHT22;11220;48.812;9.128;2023-05-10T10:14:46;20.50;86.30
22108;DHT22;11220;48.812;9.128;2023-05-10T10:17:13;19.10;86.40
22108;DHT22;11220;48.812;9.128;2023-05-10T10:19:39;19.20;87.30
22108;DHT22;11220;48.812;9.128;2023-05-10T10:22:05;19.20;87.50
22108;DHT22;11220;48.812;9.128;2023-05-10T10:24:31;19.60;88.10
22108;DHT22;11220;48.812;9.128;2023-05-10T10:27:01;19.40;88.10
22108;DHT22;11220;48.812;9.128;2023-05-10T10:29:45;19.40;88.10
22108;DHT22;11220;48.812;9.128;2023-05-10T10:32:26;19.40;88.20
22108;DHT22;11220;48.812;9.128;2023-05-10T10:34:54;19.50;88.20
22108;DHT22;11220;48.812;9.128;2023-05-10T10:37:20;19.60;88.30
22108;DHT22;11220;48.812;9.128;2023-05-10T10:39:48;19.60;88.30
22108;DHT22;11220;48.812;9.128;2023-05-10T10:42:43;19.90;88.40
22108;DHT22;11220;48.812;9.128;2023-05-10T10:45:13;19.80;88.40
22108;DHT22;11220;48.812;9.128;2023-05-10T10:47:39;19.80;88.40
22108;DHT22;11220;48.812;9.128;2023-05-10T10:50:06;19.80;88.50
22108;DHT22;11220;48.812;9.128;2023-05-10T10:52:39;19.90;88.60
22108;DHT22;11220;48.812;9.128;2023-05-10T10:55:18;19.90;88.60
22108;DHT22;11220;48.812;9.128;2023-05-10T11:02:47;20.00;88.90
22108;DHT22;11220;48.812;9.128;2023-05-10T11:05:48;20.00;89.00
22108;DHT22;11220;48.812;9.128;2023-05-10T11:11:02;20.00;89.20
22108;DHT22;11220;48.812;9.128;2023-05-10T11:13:41;20.10;89.20
22108;DHT22;11220;48.812;9.128;2023-05-10T11:16:12;20.10;89.30
22108;DHT22;11220;48.812;9.128;2023-05-10T11:18:38;20.20;89.40
22108;DHT22;11220;48.812;9.128;2023-05-10T11:21:04;20.10;89.30
22108;DHT22;11220;48.812;9.128;2023-05-10T11:23:55;20.10;89.40
22108;DHT22;11220;48.812;9.128;2023-05-10T11:26:22;20.10;89.40
22108;DHT22;11220;48.812;9.128;2023-05-10T11:28:50;20.20;89.50
22108;DHT22;11220;48.812;9.128;2023-05-10T11:31:17;20.20;89.50
22108;DHT22;11220;48.812;9.128;2023-05-10T11:36:19;20.20;89.50
22108;DHT22;11220;48.812;9.128;2023-05-10T11:38:45;20.70;89.70
22108;DHT22;11220;48.812;9.128;2023-05-10T11:41:12;20.20;89.40
22108;DHT22;11220;48.812;9.128;2023-05-10T11:43:41;20.30;89.30
22108;DHT22;11220;48.812;9.128;2023-05-10T11:46:09;21.00;89.70
22108;DHT22;11220;48.812;9.128;2023-05-10T11:48:36;20.80;89.60
22108;DHT22;11220;48.812;9.128;2023-05-10T11:51:02;20.40;89.20
22108;DHT22;11220;48.812;9.128;2023-05-10T11:53:30;20.30;89.10
22108;DHT22;11220;48.812;9.128;2023-05-10T11:56:03;20.30;89.10
22108;DHT22;11220;48.812;9.128;2023-05-10T11:58:30;20.30;89.00
22108;DHT22;11220;48.812;9.128;2023-05-10T12:00:55;20.80;89.20
22108;DHT22;11220;48.812;9.128;2023-05-10T12:03:22;20.20;88.80
22108;DHT22;11220;48.812;9.128;2023-05-10T12:05:48;20.40;88.80
22108;DHT22;11220;48.812;9.128;2023-05-10T12:08:14;20.30;88.60
22108;DHT22;11220;48.812;9.128;2023-05-10T12:10:40;20.30;88.50
22108;DHT22;11220;48.812;9.128;2023-05-10T12:13:11;20.20;88.40
22108;DHT22;11220;48.812;9.128;2023-05-10T12:15:38;20.20;88.20
22108;DHT22;11220;48.812;9.128;2023-05-10T12:18:03;20.20;88.10
22108;DHT22;11220;48.812;9.128;2023-05-10T12:20:30;20.30;89.00
22108;DHT22;11220;48.812;9.128;2023-05-10T12:22:57;20.30;87.90
22108;DHT22;11220;48.812;9.128;2023-05-10T12:25:29;20.60;87.90
22108;DHT22;11220;48.812;9.128;2023-05-10T12:27:57;20.50;87.80
22108;DHT22;11220;48.812;9.128;2023-05-10T12:30:24;20.50;87.60
22108;DHT22;11220;48.812;9.128;2023-05-10T12:32:50;20.30;87.40
22108;DHT22;11220;48.812;9.128;2023-05-10T12:35:16;20.30;87.40
22108;DHT22;11220;48.812;9.128;2023-05-10T12:37:43;20.40;87.30
22108;DHT22;11220;48.812;9.128;2023-05-10T12:40:09;20.70;87.40
22108;DHT22;11220;48.812;9.128;2023-05-10T12:42:36;20.40;87.20
22108;DHT22;11220;48.812;9.128;2023-05-10T12:45:03;20.50;87.20
22108;DHT22;11220;48.812;9.128;2023-05-10T12:47:29;20.40;87.10
22108;DHT22;11220;48.812;9.128;2023-05-10T12:49:55;20.50;87.00
22108;DHT22;11220;48.812;9.128;2023-05-10T12:52:21;20.40;87.10
22108;DHT22;11220;48.812;9.128;2023-05-10T12:58:17;20.60;87.10
22108;DHT22;11220;48.812;9.128;2023-05-10T13:00:43;20.50;87.00
22108;DHT22;11220;48.812;9.128;2023-05-10T13:03:09;20.50;86.90
22108;DHT22;11220;48.812;9.128;2023-05-10T13:05:35;20.40;86.70
22108;DHT22;11220;48.812;9.128;2023-05-10T13:08:01;20.40;86.50
22108;DHT22;11220;48.812;9.128;2023-05-10T13:10:29;20.50;86.50
22108;DHT22;11220;48.812;9.128;2023-05-10T13:12:55;20.50;86.40
22108;DHT22;11220;48.812;9.128;2023-05-10T13:15:21;20.50;86.40
22108;DHT22;11220;48.812;9.128;2023-05-10T13:17:47;20.40;86.30
22108;DHT22;11220;48.812;9.128;2023-05-10T13:20:13;20.40;86.30
22108;DHT22;11220;48.812;9.128;2023-05-10T13:22:38;20.60;86.50
22108;DHT22;11220;48.812;9.128;2023-05-10T13:25:04;20.60;86.50
22108;DHT22;11220;48.812;9.128;2023-05-10T13:27:30;20.50;86.50
22108;DHT22;11220;48.812;9.128;2023-05-10T13:29:55;20.40;86.50
22108;DHT22;11220;48.812;9.128;2023-05-10T13:32:21;20.60;86.70
22108;DHT22;11220;48.812;9.128;2023-05-10T13:34:46;20.50;87.50
22108;DHT22;11220;48.812;9.128;2023-05-10T13:37:12;20.50;86.70
22108;DHT22;11220;48.812;9.128;2023-05-10T13:39:37;20.40;86.70
22108;DHT22;11220;48.812;9.128;2023-05-10T13:42:04;20.40;86.70
22108;DHT22;11220;48.812;9.128;2023-05-10T13:44:29;20.50;86.80
22108;DHT22;11220;48.812;9.128;2023-05-10T13:46:56;20.50;86.80
22108;DHT22;11220;48.812;9.128;2023-05-10T13:49:21;20.50;86.90
22108;DHT22;11220;48.812;9.128;2023-05-10T13:51:47;20.70;87.10
22108;DHT22;11220;48.812;9.128;2023-05-10T13:54:13;20.60;87.10
22108;DHT22;11220;48.812;9.128;2023-05-10T13:56:39;20.60;87.10
22108;DHT22;11220;48.812;9.128;2023-05-10T13:59:06;20.50;87.10
22108;DHT22;11220;48.812;9.128;2023-05-10T14:01:33;20.50;87.10
22108;DHT22;11220;48.812;9.128;2023-05-10T14:03:59;20.50;87.20
22108;DHT22;11220;48.812;9.128;2023-05-10T14:06:24;21.40;87.80
22108;DHT22;11220;48.812;9.128;2023-05-10T14:08:50;20.60;87.40
22108;DHT22;11220;48.812;9.128;2023-05-10T14:11:16;20.50;87.40
22108;DHT22;11220;48.812;9.128;2023-05-10T14:13:41;20.50;87.40
22108;DHT22;11220;48.812;9.128;2023-05-10T14:16:09;20.50;87.50
22108;DHT22;11220;48.812;9.128;2023-05-10T14:18:35;20.60;87.60
22108;DHT22;11220;48.812;9.128;2023-05-10T14:21:04;21.00;87.80
22108;DHT22;11220;48.812;9.128;2023-05-10T14:24:53;20.60;88.20
22108;DHT22;11220;48.812;9.128;2023-05-10T14:27:29;20.50;87.30
22108;DHT22;11220;48.812;9.128;2023-05-10T14:41:38;20.60;87.30
22108;DHT22;11220;48.812;9.128;2023-05-10T14:44:06;20.60;87.30
22108;DHT22;11220;48.812;9.128;2023-05-10T14:46:31;21.00;87.60
22108;DHT22;11220;48.812;9.128;2023-05-10T14:48:57;21.90;88.20
22108;DHT22;11220;48.812;9.128;2023-05-10T14:51:23;20.60;87.40
22108;DHT22;11220;48.812;9.128;2023-05-10T14:53:48;20.60;87.50
22108;DHT22;11220;48.812;9.128;2023-05-10T14:56:17;21.40;88.00
22108;DHT22;11220;48.812;9.128;2023-05-10T14:58:42;20.70;87.60
22108;DHT22;11220;48.812;9.128;2023-05-10T15:01:08;20.70;87.60
22108;DHT22;11220;48.812;9.128;2023-05-10T15:03:34;20.70;87.60
22108;DHT22;11220;48.812;9.128;2023-05-10T15:05:59;20.70;87.60
22108;DHT22;11220;48.812;9.128;2023-05-10T15:08:25;20.80;87.70
22108;DHT22;11220;48.812;9.128;2023-05-10T15:10:51;20.70;87.60
22108;DHT22;11220;48.812;9.128;2023-05-10T15:13:16;20.70;87.40
22108;DHT22;11220;48.812;9.128;2023-05-10T15:15:42;20.90;87.40
22108;DHT22;11220;48.812;9.128;2023-05-10T15:18:11;20.70;87.20
22108;DHT22;11220;48.812;9.128;2023-05-10T15:20:37;20.70;87.20
22108;DHT22;11220;48.812;9.128;2023-05-10T15:23:02;20.80;87.10
22108;DHT22;11220;48.812;9.128;2023-05-10T15:25:28;21.30;87.40
22108;DHT22;11220;48.812;9.128;2023-05-10T15:27:54;20.90;87.10
22108;DHT22;11220;48.812;9.128;2023-05-10T15:30:20;21.50;87.60
22108;DHT22;11220;48.812;9.128;2023-05-10T15:32:45;20.70;87.00
22108;DHT22;11220;48.812;9.128;2023-05-10T15:35:11;20.70;87.00
22108;DHT22;11220;48.812;9.128;2023-05-10T15:37:37;20.70;87.00
22108;DHT22;11220;48.812;9.128;2023-05-10T15:40:03;20.70;87.00
22108;DHT22;11220;48.812;9.128;2023-05-10T15:42:30;20.70;86.90
22108;DHT22;11220;48.812;9.128;2023-05-10T15:44:57;21.60;87.50
22108;DHT22;11220;48.812;9.128;2023-05-10T15:47:22;20.70;86.90
22108;DHT22;11220;48.812;9.128;2023-05-10T15:49:48;20.70;87.00
22108;DHT22;11220;48.812;9.128;2023-05-10T15:52:13;21.10;87.20
22108;DHT22;11220;48.812;9.128;2023-05-10T15:54:39;22.20;87.90
22108;DHT22;11220;48.812;9.128;2023-05-10T15:57:05;21.20;87.30
22108;DHT22;11220;48.812;9.128;2023-05-10T15:59:31;20.90;87.20
22108;DHT22;11220;48.812;9.128;2023-05-10T16:01:57;20.80;87.00
22108;DHT22;11220;48.812;9.128;2023-05-10T16:04:22;22.50;88.20
22108;DHT22;11220;48.812;9.128;2023-05-10T16:06:48;20.80;87.00
22108;DHT22;11220;48.812;9.128;2023-05-10T16:09:14;21.30;87.40
22108;DHT22;11220;48.812;9.128;2023-05-10T16:11:41;20.80;87.00
22108;DHT22;11220;48.812;9.128;2023-05-10T16:14:07;20.90;87.10
22108;DHT22;11220;48.812;9.128;2023-05-10T16:16:33;21.70;87.60
22108;DHT22;11220;48.812;9.128;2023-05-10T16:18:59;20.80;87.10
22108;DHT22;11220;48.812;9.128;2023-05-10T16:21:26;20.80;87.20
22108;DHT22;11220;48.812;9.128;2023-05-10T16:23:53;21.20;87.30
22108;DHT22;11220;48.812;9.128;2023-05-10T16:26:18;21.10;87.40
22108;DHT22;11220;48.812;9.128;2023-05-10T16:28:44;20.90;87.30
22108;DHT22;11220;48.812;9.128;2023-05-10T16:31:10;21.00;87.40
22108;DHT22;11220;48.812;9.128;2023-05-10T16:33:35;20.80;87.30
22108;DHT22;11220;48.812;9.128;2023-05-10T16:36:01;20.80;87.30
22108;DHT22;11220;48.812;9.128;2023-05-10T16:38:27;20.70;88.20